sensor_id;sensor_type;location;lat;lon;timestamp;temperature;humidity
72380;SHT30;60354;47.798;12.472;2023-05-07T00:01:16;13.82;85.06
72380;SHT30;60354;47.798;12.472;2023-05-07T00:03:41;13.88;84.70
72380;SHT30;60354;47.798;12.472;2023-05-07T00:06:07;13.75;85.30
72380;SHT30;60354;47.798;12.472;2023-05-07T00:08:32;13.69;85.25
72380;SHT30;60354;47.798;12.472;2023-05-07T00:10:58;13.66;85.17
72380;SHT30;60354;47.798;12.472;2023-05-07T00:13:23;13.62;85.07
72380;SHT30;60354;47.798;12.472;2023-05-07T00:15:48;13.58;84.89
72380;SHT30;60354;47.798;12.472;2023-05-07T00:18:14;13.50;85.27
72380;SHT30;60354;47.798;12.472;2023-05-07T00:20:39;13.40;85.78
72380;SHT30;60354;47.798;12.472;2023-05-07T00:23:05;13.44;85.40
72380;SHT30;60354;47.798;12.472;2023-05-07T00:25:30;13.35;85.80
72380;SHT30;60354;47.798;12.472;2023-05-07T00:27:56;13.40;85.77
72380;SHT30;60354;47.798;12.472;2023-05-07T00:30:22;13.47;85.55
72380;SHT30;60354;47.798;12.472;2023-05-07T00:32:48;13.38;85.95
72380;SHT30;60354;47.798;12.472;2023-05-07T00:35:14;13.37;86.10
72380;SHT30;60354;47.798;12.472;2023-05-07T00:37:39;13.20;86.53
72380;SHT30;60354;47.798;12.472;2023-05-07T00:40:06;13.13;86.47
72380;SHT30;60354;47.798;12.472;2023-05-07T00:42:33;13.18;86.18
72380;SHT30;60354;47.798;12.472;2023-05-07T00:44:58;13.20;85.91
72380;SHT30;60354;47.798;12.472;2023-05-07T00:47:25;13.11;86.00
72380;SHT30;60354;47.798;12.472;2023-05-07T00:49:51;13.13;86.54
72380;SHT30;60354;47.798;12.472;2023-05-07T00:52:17;13.06;86.78
72380;SHT30;60354;47.798;12.472;2023-05-07T00:54:45;13.11;86.88
72380;SHT30;60354;47.798;12.472;2023-05-07T00:57:11;13.18;86.31
72380;SHT30;60354;47.798;12.472;2023-05-07T00:59:37;13.17;86.18
72380;SHT30;60354;47.798;12.472;2023-05-07T01:02:02;13.23;85.77
72380;SHT30;60354;47.798;12.472;2023-05-07T01:04:29;13.28;85.85
72380;SHT30;60354;47.798;12.472;2023-05-07T01:06:55;13.14;86.52
72380;SHT30;60354;47.798;12.472;2023-05-07T01:09:23;12.83;87.30
72380;SHT30;60354;47.798;12.472;2023-05-07T01:11:50;12.76;87.55
72380;SHT30;60354;47.798;12.472;2023-05-07T01:14:16;12.72;87.72
72380;SHT30;60354;47.798;12.472;2023-05-07T01:16:42;12.57;88.76
72380;SHT30;60354;47.798;12.472;2023-05-07T01:19:09;12.62;88.29
72380;SHT30;60354;47.798;12.472;2023-05-07T01:21:37;12.65;88.04
72380;SHT30;60354;47.798;12.472;2023-05-07T01:24:04;12.70;87.64
72380;SHT30;60354;47.798;12.472;2023-05-07T01:26:32;12.73;87.50
72380;SHT30;60354;47.798;12.472;2023-05-07T01:28:57;12.70;87.92
72380;SHT30;60354;47.798;12.472;2023-05-07T01:31:23;12.75;87.90
72380;SHT30;60354;47.798;12.472;2023-05-07T01:33:50;12.72;87.59
72380;SHT30;60354;47.798;12.472;2023-05-07T01:36:17;12.85;87.16
72380;SHT30;60354;47.798;12.472;2023-05-07T01:38:43;12.85;87.43
72380;SHT30;60354;47.798;12.472;2023-05-07T01:41:09;12.93;86.94
72380;SHT30;60354;47.798;12.472;2023-05-07T01:43:35;12.85;87.39
72380;SHT30;60354;47.798;12.472;2023-05-07T01:46:01;12.80;87.60
72380;SHT30;60354;47.798;12.472;2023-05-07T01:48:28;12.73;87.53
72380;SHT30;60354;47.798;12.472;2023-05-07T01:50:55;12.76;87.32
72380;SHT30;60354;47.798;12.472;2023-05-07T01:53:20;12.53;88.37
72380;SHT30;60354;47.798;12.472;2023-05-07T01:55:46;12.52;88.77
72380;SHT30;60354;47.798;12.472;2023-05-07T01:58:11;12.53;88.20
72380;SHT30;60354;47.798;12.472;2023-05-07T02:00:37;12.56;88.32
72380;SHT30;60354;47.798;12.472;2023-05-07T02:03:04;12.52;88.08
72380;SHT30;60354;47.798;12.472;2023-05-07T02:05:43;12.49;88.68
72380;SHT30;60354;47.798;12.472;2023-05-07T02:08:16;12.42;88.90
72380;SHT30;60354;47.798;12.472;2023-05-07T02:10:42;12.53;88.21
72380;SHT30;60354;47.798;12.472;2023-05-07T02:13:07;12.48;88.26
72380;SHT30;60354;47.798;12.472;2023-05-07T02:15:33;12.44;88.55
72380;SHT30;60354;47.798;12.472;2023-05-07T02:18:05;12.46;88.81
72380;SHT30;60354;47.798;12.472;2023-05-07T02:20:32;12.44;88.76
72380;SHT30;60354;47.798;12.472;2023-05-07T02:22:57;12.41;89.05
72380;SHT30;60354;47.798;12.472;2023-05-07T02:25:25;12.29;89.43
72380;SHT30;60354;47.798;12.472;2023-05-07T02:27:50;12.34;88.74
72380;SHT30;60354;47.798;12.472;2023-05-07T02:30:17;12.28;88.80
72380;SHT30;60354;47.798;12.472;2023-05-07T02:32:43;12.08;89.50
72380;SHT30;60354;47.798;12.472;2023-05-07T02:35:09;12.10;89.83
72380;SHT30;60354;47.798;12.472;2023-05-07T02:37:34;12.11;89.83
72380;SHT30;60354;47.798;12.472;2023-05-07T02:40:00;12.02;90.07
72380;SHT30;60354;47.798;12.472;2023-05-07T02:42:26;12.05;89.84
72380;SHT30;60354;47.798;12.472;2023-05-07T02:44:51;12.08;89.83
72380;SHT30;60354;47.798;12.472;2023-05-07T02:47:17;12.15;89.45
72380;SHT30;60354;47.798;12.472;2023-05-07T02:49:44;12.18;89.08
72380;SHT30;60354;47.798;12.472;2023-05-07T02:52:10;12.22;88.80
72380;SHT30;60354;47.798;12.472;2023-05-07T02:54:35;12.31;88.41
72380;SHT30;60354;47.798;12.472;2023-05-07T02:57:01;12.32;88.12
72380;SHT30;60354;47.798;12.472;2023-05-07T02:59:27;12.34;88.19
72380;SHT30;60354;47.798;12.472;2023-05-07T03:01:53;12.38;88.46
72380;SHT30;60354;47.798;12.472;2023-05-07T03:04:18;12.45;88.22
72380;SHT30;60354;47.798;12.472;2023-05-07T03:06:44;12.48;88.43
72380;SHT30;60354;47.798;12.472;2023-05-07T03:09:10;12.52;88.63
72380;SHT30;60354;47.798;12.472;2023-05-07T03:11:35;12.36;88.81
72380;SHT30;60354;47.798;12.472;2023-05-07T03:14:01;12.31;88.77
72380;SHT30;60354;47.798;12.472;2023-05-07T03:16:27;12.34;88.54
72380;SHT30;60354;47.798;12.472;2023-05-07T03:18:53;12.28;88.45
72380;SHT30;60354;47.798;12.472;2023-05-07T03:21:18;12.31;88.25
72380;SHT30;60354;47.798;12.472;2023-05-07T03:23:44;12.32;88.40
72380;SHT30;60354;47.798;12.472;2023-05-07T03:26:10;12.35;88.38
72380;SHT30;60354;47.798;12.472;2023-05-07T03:28:36;12.36;88.32
72380;SHT30;60354;47.798;12.472;2023-05-07T03:31:05;12.39;88.36
72380;SHT30;60354;47.798;12.472;2023-05-07T03:33:33;12.31;88.75
72380;SHT30;60354;47.798;12.472;2023-05-07T03:36:00;12.29;88.99
72380;SHT30;60354;47.798;12.472;2023-05-07T03:38:27;12.21;89.11
72380;SHT30;60354;47.798;12.472;2023-05-07T03:40:53;12.21;89.09
72380;SHT30;60354;47.798;12.472;2023-05-07T03:43:18;12.22;89.06
72380;SHT30;60354;47.798;12.472;2023-05-07T03:45:49;12.25;89.09
72380;SHT30;60354;47.798;12.472;2023-05-07T03:48:19;12.20;89.04
72380;SHT30;60354;47.798;12.472;2023-05-07T03:50:46;12.10;89.60
72380;SHT30;60354;47.798;12.472;2023-05-07T03:53:14;11.99;89.98
72380;SHT30;60354;47.798;12.472;2023-05-07T03:55:39;11.97;89.83
72380;SHT30;60354;47.798;12.472;2023-05-07T03:58:05;12.04;89.62
72380;SHT30;60354;47.798;12.472;2023-05-07T04:00:31;12.10;89.21
72380;SHT30;60354;47.798;12.472;2023-05-07T04:02:59;12.13;89.27
72380;SHT30;60354;47.798;12.472;2023-05-07T04:05:28;12.08;89.15
72380;SHT30;60354;47.798;12.472;2023-05-07T04:07:58;11.94;89.13
72380;SHT30;60354;47.798;12.472;2023-05-07T04:10:30;11.94;89.18
72380;SHT30;60354;47.798;12.472;2023-05-07T04:12:57;11.94;89.02
72380;SHT30;60354;47.798;12.472;2023-05-07T04:15:24;11.99;88.95
72380;SHT30;60354;47.798;12.472;2023-05-07T04:17:50;12.07;88.87
72380;SHT30;60354;47.798;12.472;2023-05-07T04:20:18;12.07;88.87
72380;SHT30;60354;47.798;12.472;2023-05-07T04:22:48;12.17;88.59
72380;SHT30;60354;47.798;12.472;2023-05-07T04:25:13;12.15;88.60
72380;SHT30;60354;47.798;12.472;2023-05-07T04:27:39;12.17;88.80
72380;SHT30;60354;47.798;12.472;2023-05-07T04:30:05;12.15;89.12
72380;SHT30;60354;47.798;12.472;2023-05-07T04:32:36;12.21;88.72
72380;SHT30;60354;47.798;12.472;2023-05-07T04:35:03;12.25;88.84
72380;SHT30;60354;47.798;12.472;2023-05-07T04:37:29;12.31;88.47
72380;SHT30;60354;47.798;12.472;2023-05-07T04:39:56;12.34;88.49
72380;SHT30;60354;47.798;12.472;2023-05-07T04:42:23;12.20;88.75
72380;SHT30;60354;47.798;12.472;2023-05-07T04:44:53;12.28;88.55
72380;SHT30;60354;47.798;12.472;2023-05-07T04:47:19;12.15;89.25
72380;SHT30;60354;47.798;12.472;2023-05-07T04:49:44;12.17;88.92
72380;SHT30;60354;47.798;12.472;2023-05-07T04:52:10;12.17;88.92
72380;SHT30;60354;47.798;12.472;2023-05-07T04:54:36;12.13;89.22
72380;SHT30;60354;47.798;12.472;2023-05-07T04:57:03;12.15;89.06
72380;SHT30;60354;47.798;12.472;2023-05-07T04:59:30;12.17;89.22
72380;SHT30;60354;47.798;12.472;2023-05-07T05:01:55;12.24;89.03
72380;SHT30;60354;47.798;12.472;2023-05-07T05:04:21;12.15;89.39
72380;SHT30;60354;47.798;12.472;2023-05-07T05:06:46;12.20;88.98
72380;SHT30;60354;47.798;12.472;2023-05-07T05:09:13;12.24;89.08
72380;SHT30;60354;47.798;12.472;2023-05-07T05:11:41;12.31;88.75
72380;SHT30;60354;47.798;12.472;2023-05-07T05:14:06;12.31;88.92
72380;SHT30;60354;47.798;12.472;2023-05-07T05:16:32;12.39;88.68
72380;SHT30;60354;47.798;12.472;2023-05-07T05:18:58;12.45;88.76
72380;SHT30;60354;47.798;12.472;2023-05-07T05:21:23;12.50;88.74
72380;SHT30;60354;47.798;12.472;2023-05-07T05:23:53;12.57;88.93
72380;SHT30;60354;47.798;12.472;2023-05-07T05:26:22;12.67;88.88
72380;SHT30;60354;47.798;12.472;2023-05-07T05:28:48;12.77;88.35
72380;SHT30;60354;47.798;12.472;2023-05-07T05:31:16;12.87;87.97
72380;SHT30;60354;47.798;12.472;2023-05-07T05:33:42;13.00;87.67
72380;SHT30;60354;47.798;12.472;2023-05-07T05:36:09;13.16;87.44
72380;SHT30;60354;47.798;12.472;2023-05-07T05:38:36;13.40;87.00
72380;SHT30;60354;47.798;12.472;2023-05-07T05:41:02;13.65;86.30
72380;SHT30;60354;47.798;12.472;2023-05-07T05:43:29;13.88;85.71
72380;SHT30;60354;47.798;12.472;2023-05-07T05:45:55;14.19;85.17
72380;SHT30;60354;47.798;12.472;2023-05-07T05:48:21;14.50;84.32
72380;SHT30;60354;47.798;12.472;2023-05-07T05:50:47;14.74;83.63
72380;SHT30;60354;47.798;12.472;2023-05-07T05:53:14;14.88;82.75
72380;SHT30;60354;47.798;12.472;2023-05-07T05:55:41;15.08;82.27
72380;SHT30;60354;47.798;12.472;2023-05-07T05:58:07;15.39;81.21
72380;SHT30;60354;47.798;12.472;2023-05-07T06:00:38;15.71;79.55
72380;SHT30;60354;47.798;12.472;2023-05-07T06:03:05;15.89;79.26
72380;SHT30;60354;47.798;12.472;2023-05-07T06:05:31;16.24;78.90
72380;SHT30;60354;47.798;12.472;2023-05-07T06:07:57;16.51;77.35
72380;SHT30;60354;47.798;12.472;2023-05-07T06:10:23;16.78;76.62
72380;SHT30;60354;47.798;12.472;2023-05-07T06:12:50;17.12;76.17
72380;SHT30;60354;47.798;12.472;2023-05-07T06:15:16;17.33;75.13
72380;SHT30;60354;47.798;12.472;2023-05-07T06:17:42;17.51;75.15
72380;SHT30;60354;47.798;12.472;2023-05-07T06:20:08;17.58;74.85
72380;SHT30;60354;47.798;12.472;2023-05-07T06:22:34;17.70;74.22
72380;SHT30;60354;47.798;12.472;2023-05-07T06:25:00;17.85;75.13
72380;SHT30;60354;47.798;12.472;2023-05-07T06:27:26;17.55;74.86
72380;SHT30;60354;47.798;12.472;2023-05-07T06:29:53;17.95;74.34
72380;SHT30;60354;47.798;12.472;2023-05-07T06:32:19;17.97;74.34
72380;SHT30;60354;47.798;12.472;2023-05-07T06:34:45;18.16;73.76
72380;SHT30;60354;47.798;12.472;2023-05-07T06:37:12;18.10;73.81
72380;SHT30;60354;47.798;12.472;2023-05-07T06:40:00;18.04;74.24
72380;SHT30;60354;47.798;12.472;2023-05-07T06:42:25;17.99;73.64
72380;SHT30;60354;47.798;12.472;2023-05-07T06:44:56;17.97;73.58
72380;SHT30;60354;47.798;12.472;2023-05-07T06:47:22;17.81;73.72
72380;SHT30;60354;47.798;12.472;2023-05-07T06:49:51;17.89;73.24
72380;SHT30;60354;47.798;12.472;2023-05-07T06:52:19;18.53;71.87
72380;SHT30;60354;47.798;12.472;2023-05-07T06:54:47;18.53;70.42
72380;SHT30;60354;47.798;12.472;2023-05-07T06:57:16;18.74;71.05
72380;SHT30;60354;47.798;12.472;2023-05-07T06:59:41;18.87;71.02
72380;SHT30;60354;47.798;12.472;2023-05-07T07:02:07;19.36;70.04
72380;SHT30;60354;47.798;12.472;2023-05-07T07:04:34;18.90;69.89
72380;SHT30;60354;47.798;12.472;2023-05-07T07:07:04;19.08;69.58
72380;SHT30;60354;47.798;12.472;2023-05-07T07:09:30;18.87;68.85
72380;SHT30;60354;47.798;12.472;2023-05-07T07:11:57;18.77;70.52
72380;SHT30;60354;47.798;12.472;2023-05-07T07:14:23;18.87;69.06
72380;SHT30;60354;47.798;12.472;2023-05-07T07:16:50;19.17;70.00
72380;SHT30;60354;47.798;12.472;2023-05-07T07:19:18;19.68;68.60
72380;SHT30;60354;47.798;12.472;2023-05-07T07:21:47;19.70;66.55
72380;SHT30;60354;47.798;12.472;2023-05-07T07:24:14;19.79;67.19
72380;SHT30;60354;47.798;12.472;2023-05-07T07:26:45;19.76;66.33
72380;SHT30;60354;47.798;12.472;2023-05-07T07:29:11;19.94;67.10
72380;SHT30;60354;47.798;12.472;2023-05-07T07:31:38;19.66;67.32
72380;SHT30;60354;47.798;12.472;2023-05-07T07:34:04;19.70;67.01
72380;SHT30;60354;47.798;12.472;2023-05-07T07:36:30;19.86;67.24
72380;SHT30;60354;47.798;12.472;2023-05-07T07:38:55;19.90;67.63
72380;SHT30;60354;47.798;12.472;2023-05-07T07:41:21;20.00;66.57
72380;SHT30;60354;47.798;12.472;2023-05-07T07:43:47;19.99;65.56
72380;SHT30;60354;47.798;12.472;2023-05-07T07:46:13;20.21;63.23
72380;SHT30;60354;47.798;12.472;2023-05-07T07:48:38;20.06;64.68
72380;SHT30;60354;47.798;12.472;2023-05-07T07:51:04;19.96;65.71
72380;SHT30;60354;47.798;12.472;2023-05-07T07:53:30;20.06;64.61
72380;SHT30;60354;47.798;12.472;2023-05-07T07:55:56;20.36;66.94
72380;SHT30;60354;47.798;12.472;2023-05-07T07:58:25;20.33;67.33
72380;SHT30;60354;47.798;12.472;2023-05-07T08:00:52;20.41;67.95
72380;SHT30;60354;47.798;12.472;2023-05-07T08:03:17;20.24;69.67
72380;SHT30;60354;47.798;12.472;2023-05-07T08:05:47;20.49;67.65
72380;SHT30;60354;47.798;12.472;2023-05-07T08:08:12;20.36;66.10
72380;SHT30;60354;47.798;12.472;2023-05-07T08:10:39;20.71;65.51
72380;SHT30;60354;47.798;12.472;2023-05-07T08:13:13;20.71;66.64
72380;SHT30;60354;47.798;12.472;2023-05-07T08:15:40;20.54;65.13
72380;SHT30;60354;47.798;12.472;2023-05-07T08:18:06;20.99;65.46
72380;SHT30;60354;47.798;12.472;2023-05-07T08:20:32;21.25;63.83
72380;SHT30;60354;47.798;12.472;2023-05-07T08:22:59;21.02;64.01
72380;SHT30;60354;47.798;12.472;2023-05-07T08:25:26;21.12;63.89
72380;SHT30;60354;47.798;12.472;2023-05-07T08:27:51;21.35;63.56
72380;SHT30;60354;47.798;12.472;2023-05-07T08:30:17;21.67;62.10
72380;SHT30;60354;47.798;12.472;2023-05-07T08:32:43;20.88;61.14
72380;SHT30;60354;47.798;12.472;2023-05-07T08:35:09;21.40;62.12
72380;SHT30;60354;47.798;12.472;2023-05-07T08:37:34;21.18;64.85
72380;SHT30;60354;47.798;12.472;2023-05-07T08:40:00;21.51;64.55
72380;SHT30;60354;47.798;12.472;2023-05-07T08:42:31;21.54;62.20
72380;SHT30;60354;47.798;12.472;2023-05-07T08:44:57;21.53;62.98
72380;SHT30;60354;47.798;12.472;2023-05-07T08:47:29;21.43;63.81
72380;SHT30;60354;47.798;12.472;2023-05-07T08:49:58;21.58;63.92
72380;SHT30;60354;47.798;12.472;2023-05-07T08:52:24;21.80;64.65
72380;SHT30;60354;47.798;12.472;2023-05-07T08:54:51;22.11;65.57
72380;SHT30;60354;47.798;12.472;2023-05-07T08:57:17;22.11;63.29
72380;SHT30;60354;47.798;12.472;2023-05-07T08:59:45;22.18;64.07
72380;SHT30;60354;47.798;12.472;2023-05-07T09:02:11;22.11;65.40
72380;SHT30;60354;47.798;12.472;2023-05-07T09:04:37;21.96;63.65
72380;SHT30;60354;47.798;12.472;2023-05-07T09:07:02;22.14;64.09
72380;SHT30;60354;47.798;12.472;2023-05-07T09:09:33;22.07;61.44
72380;SHT30;60354;47.798;12.472;2023-05-07T09:12:00;22.11;65.11
72380;SHT30;60354;47.798;12.472;2023-05-07T09:14:27;22.15;64.06
72380;SHT30;60354;47.798;12.472;2023-05-07T09:16:54;22.19;63.51
72380;SHT30;60354;47.798;12.472;2023-05-07T09:19:23;22.07;63.99
72380;SHT30;60354;47.798;12.472;2023-05-07T09:22:00;22.08;64.80
72380;SHT30;60354;47.798;12.472;2023-05-07T09:24:30;22.12;63.57
72380;SHT30;60354;47.798;12.472;2023-05-07T09:27:01;22.05;63.79
72380;SHT30;60354;47.798;12.472;2023-05-07T09:29:28;22.38;63.60
72380;SHT30;60354;47.798;12.472;2023-05-07T09:31:55;22.29;64.27
72380;SHT30;60354;47.798;12.472;2023-05-07T09:34:21;22.36;64.32
72380;SHT30;60354;47.798;12.472;2023-05-07T09:36:47;22.28;63.15
72380;SHT30;60354;47.798;12.472;2023-05-07T09:39:13;22.12;61.03
72380;SHT30;60354;47.798;12.472;2023-05-07T09:41:48;22.18;58.70
72380;SHT30;60354;47.798;12.472;2023-05-07T09:44:25;22.49;58.34
72380;SHT30;60354;47.798;12.472;2023-05-07T09:46:54;22.58;57.72
72380;SHT30;60354;47.798;12.472;2023-05-07T09:49:29;22.46;57.35
72380;SHT30;60354;47.798;12.472;2023-05-07T09:52:01;22.07;56.73
72380;SHT30;60354;47.798;12.472;2023-05-07T09:54:29;21.68;58.43
72380;SHT30;60354;47.798;12.472;2023-05-07T09:56:56;21.74;57.51
72380;SHT30;60354;47.798;12.472;2023-05-07T09:59:25;21.87;56.34
72380;SHT30;60354;47.798;12.472;2023-05-07T10:01:54;21.94;55.62
72380;SHT30;60354;47.798;12.472;2023-05-07T10:04:22;22.17;56.42
72380;SHT30;60354;47.798;12.472;2023-05-07T10:06:48;22.39;55.97
72380;SHT30;60354;47.798;12.472;2023-05-07T10:09:14;22.46;56.70
72380;SHT30;60354;47.798;12.472;2023-05-07T10:11:40;22.55;55.16
72380;SHT30;60354;47.798;12.472;2023-05-07T10:14:07;22.34;55.09
72380;SHT30;60354;47.798;12.472;2023-05-07T10:16:34;22.56;56.47
72380;SHT30;60354;47.798;12.472;2023-05-07T10:19:03;22.45;55.31
72380;SHT30;60354;47.798;12.472;2023-05-07T10:21:30;22.52;56.29
72380;SHT30;60354;47.798;12.472;2023-05-07T10:24:04;22.46;55.02
72380;SHT30;60354;47.798;12.472;2023-05-07T10:26:35;22.66;55.75
72380;SHT30;60354;47.798;12.472;2023-05-07T10:29:12;22.56;55.27
72380;SHT30;60354;47.798;12.472;2023-05-07T10:34:36;22.90;53.34
72380;SHT30;60354;47.798;12.472;2023-05-07T10:37:03;22.97;52.65
72380;SHT30;60354;47.798;12.472;2023-05-07T10:39:30;22.92;54.64
72380;SHT30;60354;47.798;12.472;2023-05-07T10:41:56;23.06;54.98
72380;SHT30;60354;47.798;12.472;2023-05-07T10:44:29;23.24;53.63
72380;SHT30;60354;47.798;12.472;2023-05-07T10:47:09;23.21;53.12
72380;SHT30;60354;47.798;12.472;2023-05-07T10:52:24;23.04;53.80
72380;SHT30;60354;47.798;12.472;2023-05-07T10:58:26;22.82;54.85
72380;SHT30;60354;47.798;12.472;2023-05-07T11:00:57;22.82;55.49
72380;SHT30;60354;47.798;12.472;2023-05-07T11:03:28;23.02;54.50
72380;SHT30;60354;47.798;12.472;2023-05-07T11:06:12;22.77;54.64
72380;SHT30;60354;47.798;12.472;2023-05-07T11:09:04;22.85;54.88
72380;SHT30;60354;47.798;12.472;2023-05-07T11:11:52;22.63;55.78
72380;SHT30;60354;47.798;12.472;2023-05-07T11:14:44;22.70;55.42
72380;SHT30;60354;47.798;12.472;2023-05-07T11:17:26;23.04;54.43
72380;SHT30;60354;47.798;12.472;2023-05-07T11:20:02;23.11;55.52
72380;SHT30;60354;47.798;12.472;2023-05-07T11:22:40;23.38;54.23
72380;SHT30;60354;47.798;12.472;2023-05-07T11:25:29;23.20;54.98
72380;SHT30;60354;47.798;12.472;2023-05-07T11:28:06;23.11;56.61
72380;SHT30;60354;47.798;12.472;2023-05-07T11:30:32;22.70;55.45
72380;SHT30;60354;47.798;12.472;2023-05-07T11:32:59;22.80;54.80
72380;SHT30;60354;47.798;12.472;2023-05-07T11:35:25;22.34;56.72
72380;SHT30;60354;47.798;12.472;2023-05-07T11:37:58;22.17;57.63
72380;SHT30;60354;47.798;12.472;2023-05-07T11:40:24;22.18;57.76
72380;SHT30;60354;47.798;12.472;2023-05-07T11:42:50;22.34;56.32
72380;SHT30;60354;47.798;12.472;2023-05-07T11:45:23;22.55;55.85
72380;SHT30;60354;47.798;12.472;2023-05-07T11:47:49;22.22;54.25
72380;SHT30;60354;47.798;12.472;2023-05-07T11:50:15;22.31;55.08
72380;SHT30;60354;47.798;12.472;2023-05-07T11:52:50;22.29;55.28
72380;SHT30;60354;47.798;12.472;2023-05-07T11:55:18;22.58;54.50
72380;SHT30;60354;47.798;12.472;2023-05-07T11:57:44;22.80;54.84
72380;SHT30;60354;47.798;12.472;2023-05-07T12:00:10;22.97;54.42
72380;SHT30;60354;47.798;12.472;2023-05-07T12:02:39;23.16;54.45
72380;SHT30;60354;47.798;12.472;2023-05-07T12:05:05;23.30;54.22
72380;SHT30;60354;47.798;12.472;2023-05-07T12:07:35;23.31;55.12
72380;SHT30;60354;47.798;12.472;2023-05-07T12:10:05;23.27;52.74
72380;SHT30;60354;47.798;12.472;2023-05-07T12:12:31;23.31;53.11
72380;SHT30;60354;47.798;12.472;2023-05-07T12:15:03;23.34;52.75
72380;SHT30;60354;47.798;12.472;2023-05-07T12:17:28;23.51;52.04
72380;SHT30;60354;47.798;12.472;2023-05-07T12:19:54;23.74;52.49
72380;SHT30;60354;47.798;12.472;2023-05-07T12:22:19;23.85;52.57
72380;SHT30;60354;47.798;12.472;2023-05-07T12:24:47;23.34;52.13
72380;SHT30;60354;47.798;12.472;2023-05-07T12:27:13;23.20;53.35
72380;SHT30;60354;47.798;12.472;2023-05-07T12:29:39;23.00;53.88
72380;SHT30;60354;47.798;12.472;2023-05-07T12:32:13;23.10;53.96
72380;SHT30;60354;47.798;12.472;2023-05-07T12:34:39;23.17;54.42
72380;SHT30;60354;47.798;12.472;2023-05-07T12:37:05;23.18;54.57
72380;SHT30;60354;47.798;12.472;2023-05-07T12:39:30;23.06;54.29
72380;SHT30;60354;47.798;12.472;2023-05-07T12:42:00;23.04;53.05
72380;SHT30;60354;47.798;12.472;2023-05-07T12:44:33;23.03;53.18
72380;SHT30;60354;47.798;12.472;2023-05-07T12:47:02;22.89;52.77
72380;SHT30;60354;47.798;12.472;2023-05-07T12:49:28;23.02;54.82
72380;SHT30;60354;47.798;12.472;2023-05-07T12:51:54;22.89;54.13
72380;SHT30;60354;47.798;12.472;2023-05-07T12:54:32;22.86;54.74
72380;SHT30;60354;47.798;12.472;2023-05-07T12:57:19;22.95;53.84
72380;SHT30;60354;47.798;12.472;2023-05-07T12:59:45;22.96;54.05
72380;SHT30;60354;47.798;12.472;2023-05-07T13:02:11;22.85;53.42
72380;SHT30;60354;47.798;12.472;2023-05-07T13:04:38;22.70;56.42
72380;SHT30;60354;47.798;12.472;2023-05-07T13:07:04;22.89;54.52
72380;SHT30;60354;47.798;12.472;2023-05-07T13:09:30;22.68;54.86
72380;SHT30;60354;47.798;12.472;2023-05-07T13:11:56;22.63;55.14
72380;SHT30;60354;47.798;12.472;2023-05-07T13:14:21;22.56;56.06
72380;SHT30;60354;47.798;12.472;2023-05-07T13:16:47;22.49;56.44
72380;SHT30;60354;47.798;12.472;2023-05-07T13:19:13;22.32;56.71
72380;SHT30;60354;47.798;12.472;2023-05-07T13:21:39;22.21;56.85
72380;SHT30;60354;47.798;12.472;2023-05-07T13:24:07;22.31;57.66
72380;SHT30;60354;47.798;12.472;2023-05-07T13:26:33;22.18;57.76
72380;SHT30;60354;47.798;12.472;2023-05-07T13:28:58;22.45;57.56
72380;SHT30;60354;47.798;12.472;2023-05-07T13:31:24;22.44;56.71
72380;SHT30;60354;47.798;12.472;2023-05-07T13:33:50;22.14;58.51
72380;SHT30;60354;47.798;12.472;2023-05-07T13:36:15;22.17;57.41
72380;SHT30;60354;47.798;12.472;2023-05-07T13:38:41;22.18;57.44
72380;SHT30;60354;47.798;12.472;2023-05-07T13:41:06;22.41;58.25
72380;SHT30;60354;47.798;12.472;2023-05-07T13:43:32;22.55;57.31
72380;SHT30;60354;47.798;12.472;2023-05-07T13:45:59;22.53;57.74
72380;SHT30;60354;47.798;12.472;2023-05-07T13:48:25;22.49;56.97
72380;SHT30;60354;47.798;12.472;2023-05-07T13:50:50;22.73;56.94
72380;SHT30;60354;47.798;12.472;2023-05-07T13:53:16;22.72;57.17
72380;SHT30;60354;47.798;12.472;2023-05-07T13:55:43;22.56;57.42
72380;SHT30;60354;47.798;12.472;2023-05-07T13:58:09;22.56;57.19
72380;SHT30;60354;47.798;12.472;2023-05-07T14:00:35;22.34;57.78
72380;SHT30;60354;47.798;12.472;2023-05-07T14:03:01;22.31;56.43
72380;SHT30;60354;47.798;12.472;2023-05-07T14:05:26;22.19;57.13
72380;SHT30;60354;47.798;12.472;2023-05-07T14:07:54;22.29;57.86
72380;SHT30;60354;47.798;12.472;2023-05-07T14:10:19;22.17;57.86
72380;SHT30;60354;47.798;12.472;2023-05-07T14:12:45;22.01;57.92
72380;SHT30;60354;47.798;12.472;2023-05-07T14:15:13;22.17;56.10
72380;SHT30;60354;47.798;12.472;2023-05-07T14:17:39;22.09;58.25
72380;SHT30;60354;47.798;12.472;2023-05-07T14:20:05;22.09;58.00
72380;SHT30;60354;47.798;12.472;2023-05-07T14:22:33;21.93;58.60
72380;SHT30;60354;47.798;12.472;2023-05-07T14:24:58;22.00;59.66
72380;SHT30;60354;47.798;12.472;2023-05-07T14:27:24;21.93;60.67
72380;SHT30;60354;47.798;12.472;2023-05-07T14:29:50;21.70;59.08
72380;SHT30;60354;47.798;12.472;2023-05-07T14:32:17;21.73;59.66
72380;SHT30;60354;47.798;12.472;2023-05-07T14:34:43;21.83;59.70
72380;SHT30;60354;47.798;12.472;2023-05-07T14:37:09;21.81;58.42
72380;SHT30;60354;47.798;12.472;2023-05-07T14:39:35;21.87;58.89
72380;SHT30;60354;47.798;12.472;2023-05-07T14:42:01;21.77;59.36
72380;SHT30;60354;47.798;12.472;2023-05-07T14:44:27;21.80;60.07
72380;SHT30;60354;47.798;12.472;2023-05-07T14:46:53;21.84;60.11
72380;SHT30;60354;47.798;12.472;2023-05-07T14:49:18;21.56;59.65
72380;SHT30;60354;47.798;12.472;2023-05-07T14:51:47;21.50;60.65
72380;SHT30;60354;47.798;12.472;2023-05-07T14:54:13;21.58;61.79
72380;SHT30;60354;47.798;12.472;2023-05-07T14:56:39;21.54;61.25
72380;SHT30;60354;47.798;12.472;2023-05-07T14:59:05;21.43;60.98
72380;SHT30;60354;47.798;12.472;2023-05-07T15:01:31;21.39;61.37
72380;SHT30;60354;47.798;12.472;2023-05-07T15:03:57;21.27;61.34
72380;SHT30;60354;47.798;12.472;2023-05-07T15:06:22;21.18;61.85
72380;SHT30;60354;47.798;12.472;2023-05-07T15:08:48;21.22;61.81
72380;SHT30;60354;47.798;12.472;2023-05-07T15:11:14;21.25;62.16
72380;SHT30;60354;47.798;12.472;2023-05-07T15:13:43;21.20;61.62
72380;SHT30;60354;47.798;12.472;2023-05-07T15:16:08;21.08;61.49
72380;SHT30;60354;47.798;12.472;2023-05-07T15:18:34;20.98;62.03
72380;SHT30;60354;47.798;12.472;2023-05-07T15:20:59;21.02;62.53
72380;SHT30;60354;47.798;12.472;2023-05-07T15:23:25;20.96;62.82
72380;SHT30;60354;47.798;12.472;2023-05-07T15:25:52;20.88;62.49